sensor_id;sensor_type;location;lat;lon;timestamp;noise_LAeq;noise_LA_min;noise_LA_max;noise_LA01;noise_LA95
63692;Laerm;49838;51.798;10.954;2023-09-07T00:00:39;32.49;29.73;36.80;;
63692;Laerm;49838;51.798;10.954;2023-09-07T00:03:06;40.96;31.49;58.55;;
63692;Laerm;49838;51.798;10.954;2023-09-07T00:05:33;35.75;29.68;41.92;;
63692;Laerm;49838;51.798;10.954;2023-09-07T00:08:01;34.25;29.34;47.11;;
63692;Laerm;49838;51.798;10.954;2023-09-07T00:10:30;31.89;28.97;46.09;;
63692;Laerm;49838;51.798;10.954;2023-09-07T00:12:57;34.82;28.39;47.20;;
63692;Laerm;49838;51.798;10.954;2023-09-07T00:15:24;32.32;29.04;39.09;;
63692;Laerm;49838;51.798;10.954;2023-09-07T00:17:52;41.48;29.25;76.14;;
63692;Laerm;49838;51.798;10.954;2023-09-07T00:20:20;41.93;31.80;54.31;;
63692;Laerm;49838;51.798;10.954;2023-09-07T00:22:47;32.10;29.23;38.47;;
63692;Laerm;49838;51.798;10.954;2023-09-07T00:25:15;33.83;28.97;41.55;;
63692;Laerm;49838;51.798;10.954;2023-09-07T00:27:44;34.68;28.74;44.60;;
63692;Laerm;49838;51.798;10.954;2023-09-07T00:30:11;34.92;29.32;53.15;;
63692;Laerm;49838;51.798;10.954;2023-09-07T00:32:39;33.10;29.33;43.56;;
63692;Laerm;49838;51.798;10.954;2023-09-07T00:35:06;39.56;29.91;48.83;;
63692;Laerm;49838;51.798;10.954;2023-09-07T00:37:34;31.77;28.68;48.14;;
63692;Laerm;49838;51.798;10.954;2023-09-07T00:40:01;33.90;28.80;42.95;;
63692;Laerm;49838;51.798;10.954;2023-09-07T00:42:29;38.56;30.66;46.72;;
63692;Laerm;49838;51.798;10.954;2023-09-07T00:44:58;32.94;29.50;45.56;;
63692;Laerm;49838;51.798;10.954;2023-09-07T00:47:25;40.64;28.74;49.24;;
63692;Laerm;49838;51.798;10.954;2023-09-07T00:49:53;41.89;31.99;51.14;;
63692;Laerm;49838;51.798;10.954;2023-09-07T00:52:21;43.01;33.06;49.05;;
63692;Laerm;49838;51.798;10.954;2023-09-07T00:54:49;38.16;28.98;50.76;;
63692;Laerm;49838;51.798;10.954;2023-09-07T00:57:16;34.25;27.93;49.31;;
63692;Laerm;49838;51.798;10.954;2023-09-07T00:59:43;40.06;28.51;49.13;;
63692;Laerm;49838;51.798;10.954;2023-09-07T01:05:43;35.14;28.59;41.62;;
63692;Laerm;49838;51.798;10.954;2023-09-07T01:08:18;39.17;31.70;48.40;;
63692;Laerm;49838;51.798;10.954;2023-09-07T01:10:46;38.68;29.75;46.52;;
63692;Laerm;49838;51.798;10.954;2023-09-07T01:13:14;35.11;29.31;44.27;;
63692;Laerm;49838;51.798;10.954;2023-09-07T01:15:41;39.67;29.46;50.11;;
63692;Laerm;49838;51.798;10.954;2023-09-07T01:18:09;39.63;29.71;49.82;;
63692;Laerm;49838;51.798;10.954;2023-09-07T01:20:39;32.46;28.14;41.77;;
63692;Laerm;49838;51.798;10.954;2023-09-07T01:23:09;36.43;29.09;45.51;;
63692;Laerm;49838;51.798;10.954;2023-09-07T01:25:39;38.49;27.58;51.78;;
63692;Laerm;49838;51.798;10.954;2023-09-07T01:28:08;34.42;27.46;44.03;;
63692;Laerm;49838;51.798;10.954;2023-09-07T01:30:36;38.71;27.31;53.19;;
63692;Laerm;49838;51.798;10.954;2023-09-07T01:33:03;39.55;29.51;54.19;;
63692;Laerm;49838;51.798;10.954;2023-09-07T01:35:32;42.50;30.86;52.18;;
63692;Laerm;49838;51.798;10.954;2023-09-07T01:38:00;43.86;34.29;54.83;;
63692;Laerm;49838;51.798;10.954;2023-09-07T01:40:30;38.32;31.14;50.25;;
63692;Laerm;49838;51.798;10.954;2023-09-07T01:42:57;36.61;28.58;46.12;;
63692;Laerm;49838;51.798;10.954;2023-09-07T01:45:24;36.50;27.89;47.57;;
63692;Laerm;49838;51.798;10.954;2023-09-07T01:47:52;36.70;29.39;44.33;;
63692;Laerm;49838;51.798;10.954;2023-09-07T01:50:19;39.90;31.25;51.11;;
63692;Laerm;49838;51.798;10.954;2023-09-07T01:52:47;38.09;30.71;50.27;;
63692;Laerm;49838;51.798;10.954;2023-09-07T01:55:15;54.20;29.83;74.70;;
63692;Laerm;49838;51.798;10.954;2023-09-07T01:57:44;40.74;32.63;48.11;;
63692;Laerm;49838;51.798;10.954;2023-09-07T02:00:12;39.38;30.60;51.47;;
63692;Laerm;49838;51.798;10.954;2023-09-07T02:02:40;42.07;31.57;52.37;;
63692;Laerm;49838;51.798;10.954;2023-09-07T02:05:07;39.97;32.07;49.85;;
63692;Laerm;49838;51.798;10.954;2023-09-07T02:07:35;47.08;34.03;62.52;;
63692;Laerm;49838;51.798;10.954;2023-09-07T02:10:03;40.69;32.85;48.88;;
63692;Laerm;49838;51.798;10.954;2023-09-07T02:12:30;44.04;34.53;52.18;;
63692;Laerm;49838;51.798;10.954;2023-09-07T02:15:02;39.04;31.75;53.86;;
63692;Laerm;49838;51.798;10.954;2023-09-07T02:17:29;42.51;34.45;48.82;;
63692;Laerm;49838;51.798;10.954;2023-09-07T02:19:57;43.86;35.98;52.27;;
63692;Laerm;49838;51.798;10.954;2023-09-07T02:22:24;41.62;36.04;55.26;;
63692;Laerm;49838;51.798;10.954;2023-09-07T02:24:52;42.30;35.20;54.30;;
63692;Laerm;49838;51.798;10.954;2023-09-07T02:27:19;40.46;33.76;48.03;;
63692;Laerm;49838;51.798;10.954;2023-09-07T02:29:46;45.74;36.12;65.90;;
63692;Laerm;49838;51.798;10.954;2023-09-07T02:32:15;44.56;38.42;53.26;;
63692;Laerm;49838;51.798;10.954;2023-09-07T02:34:42;43.63;35.42;57.11;;
63692;Laerm;49838;51.798;10.954;2023-09-07T02:37:10;39.51;34.08;47.27;;
63692;Laerm;49838;51.798;10.954;2023-09-07T02:39:37;39.67;34.37;52.26;;
63692;Laerm;49838;51.798;10.954;2023-09-07T02:42:04;41.68;35.41;48.07;;
63692;Laerm;49838;51.798;10.954;2023-09-07T02:44:32;52.68;33.38;70.07;;
63692;Laerm;49838;51.798;10.954;2023-09-07T02:46:59;41.98;37.06;51.80;;
63692;Laerm;49838;51.798;10.954;2023-09-07T02:49:28;41.08;36.42;48.87;;
63692;Laerm;49838;51.798;10.954;2023-09-07T02:51:55;40.91;35.64;54.14;;
63692;Laerm;49838;51.798;10.954;2023-09-07T02:54:23;42.02;37.78;52.06;;
63692;Laerm;49838;51.798;10.954;2023-09-07T02:56:50;40.62;35.65;48.45;;
63692;Laerm;49838;51.798;10.954;2023-09-07T02:59:18;41.59;36.11;48.81;;
63692;Laerm;49838;51.798;10.954;2023-09-07T03:01:46;42.36;35.35;60.68;;
63692;Laerm;49838;51.798;10.954;2023-09-07T03:04:13;41.18;35.45;48.94;;
63692;Laerm;49838;51.798;10.954;2023-09-07T03:06:42;42.38;35.67;60.25;;
63692;Laerm;49838;51.798;10.954;2023-09-07T03:09:09;44.57;37.40;56.58;;
63692;Laerm;49838;51.798;10.954;2023-09-07T03:11:36;44.40;37.00;51.30;;
63692;Laerm;49838;51.798;10.954;2023-09-07T03:14:03;42.57;35.39;52.00;;
63692;Laerm;49838;51.798;10.954;2023-09-07T03:16:30;45.89;38.56;59.62;;
63692;Laerm;49838;51.798;10.954;2023-09-07T03:18:58;55.67;38.90;74.56;;
63692;Laerm;49838;51.798;10.954;2023-09-07T03:21:25;58.22;37.97;76.71;;
63692;Laerm;49838;51.798;10.954;2023-09-07T03:23:57;43.65;35.57;55.41;;
63692;Laerm;49838;51.798;10.954;2023-09-07T03:26:24;45.67;39.94;54.95;;
63692;Laerm;49838;51.798;10.954;2023-09-07T03:28:51;56.09;41.98;72.36;;
63692;Laerm;49838;51.798;10.954;2023-09-07T03:31:19;52.15;40.98;70.01;;
63692;Laerm;49838;51.798;10.954;2023-09-07T03:33:46;50.14;41.10;64.15;;
63692;Laerm;49838;51.798;10.954;2023-09-07T03:36:13;45.49;39.44;51.30;;
63692;Laerm;49838;51.798;10.954;2023-09-07T03:38:41;52.82;41.04;69.23;;
63692;Laerm;49838;51.798;10.954;2023-09-07T03:41:10;46.02;38.72;54.13;;
63692;Laerm;49838;51.798;10.954;2023-09-07T03:43:38;46.07;39.53;52.40;;
63692;Laerm;49838;51.798;10.954;2023-09-07T03:46:05;55.26;41.10;69.86;;
63692;Laerm;49838;51.798;10.954;2023-09-07T03:48:33;55.48;41.72;74.69;;
63692;Laerm;49838;51.798;10.954;2023-09-07T03:51:00;46.41;40.12;52.41;;
63692;Laerm;49838;51.798;10.954;2023-09-07T03:53:27;57.06;41.53;74.53;;
63692;Laerm;49838;51.798;10.954;2023-09-07T03:55:55;47.74;38.33;56.80;;
63692;Laerm;49838;51.798;10.954;2023-09-07T03:58:23;54.68;41.97;70.28;;
63692;Laerm;49838;51.798;10.954;2023-09-07T04:00:50;59.03;43.59;72.25;;
63692;Laerm;49838;51.798;10.954;2023-09-07T04:03:18;50.16;41.94;62.82;;
63692;Laerm;49838;51.798;10.954;2023-09-07T04:05:45;56.30;41.64;74.28;;
63692;Laerm;49838;51.798;10.954;2023-09-07T04:08:12;48.46;42.13;57.08;;
63692;Laerm;49838;51.798;10.954;2023-09-07T04:10:40;54.54;42.61;70.55;;
63692;Laerm;49838;51.798;10.954;2023-09-07T04:13:07;57.32;39.31;74.02;;
63692;Laerm;49838;51.798;10.954;2023-09-07T04:15:41;48.56;39.32;56.61;;
63692;Laerm;49838;51.798;10.954;2023-09-07T04:18:08;51.46;43.44;69.02;;
63692;Laerm;49838;51.798;10.954;2023-09-07T04:20:36;51.52;43.22;67.10;;
63692;Laerm;49838;51.798;10.954;2023-09-07T04:23:03;56.60;43.95;75.91;;
63692;Laerm;49838;51.798;10.954;2023-09-07T04:25:30;57.30;42.12;76.42;;
63692;Laerm;49838;51.798;10.954;2023-09-07T04:27:58;53.97;43.00;68.85;;
63692;Laerm;49838;51.798;10.954;2023-09-07T04:30:26;51.40;43.07;66.18;;
63692;Laerm;49838;51.798;10.954;2023-09-07T04:32:55;59.91;44.08;79.54;;
63692;Laerm;49838;51.798;10.954;2023-09-07T04:35:27;63.98;45.15;80.19;;
63692;Laerm;49838;51.798;10.954;2023-09-07T04:37:55;60.59;45.64;76.40;;
63692;Laerm;49838;51.798;10.954;2023-09-07T04:40:23;55.18;42.30;70.46;;
63692;Laerm;49838;51.798;10.954;2023-09-07T04:42:51;47.87;41.88;61.24;;
63692;Laerm;49838;51.798;10.954;2023-09-07T04:45:18;53.29;43.34;69.79;;
63692;Laerm;49838;51.798;10.954;2023-09-07T04:47:45;56.43;43.06;70.23;;
63692;Laerm;49838;51.798;10.954;2023-09-07T04:50:15;58.40;43.51;74.84;;
63692;Laerm;49838;51.798;10.954;2023-09-07T04:52:42;59.94;43.66;73.83;;
63692;Laerm;49838;51.798;10.954;2023-09-07T04:55:10;57.42;44.13;72.28;;
63692;Laerm;49838;51.798;10.954;2023-09-07T04:57:37;57.41;42.64;71.96;;
63692;Laerm;49838;51.798;10.954;2023-09-07T05:00:06;55.43;43.28;75.99;;
63692;Laerm;49838;51.798;10.954;2023-09-07T05:02:33;52.90;45.32;69.76;;
63692;Laerm;49838;51.798;10.954;2023-09-07T05:05:05;56.78;43.55;74.21;;
63692;Laerm;49838;51.798;10.954;2023-09-07T05:07:34;61.45;42.28;81.36;;
63692;Laerm;49838;51.798;10.954;2023-09-07T05:10:01;58.47;45.00;73.31;;
63692;Laerm;49838;51.798;10.954;2023-09-07T05:12:29;66.30;46.68;91.66;;
63692;Laerm;49838;51.798;10.954;2023-09-07T05:14:56;54.58;43.93;66.61;;
63692;Laerm;49838;51.798;10.954;2023-09-07T05:17:23;60.04;45.58;72.57;;
63692;Laerm;49838;51.798;10.954;2023-09-07T05:19:51;61.67;45.52;73.31;;
63692;Laerm;49838;51.798;10.954;2023-09-07T05:22:18;62.36;46.15;76.37;;
63692;Laerm;49838;51.798;10.954;2023-09-07T05:24:47;58.59;43.73;72.96;;
63692;Laerm;49838;51.798;10.954;2023-09-07T05:27:14;63.38;46.90;78.13;;
63692;Laerm;49838;51.798;10.954;2023-09-07T05:29:42;63.80;47.39;75.97;;
63692;Laerm;49838;51.798;10.954;2023-09-07T05:32:09;72.75;56.16;82.19;;
63692;Laerm;49838;51.798;10.954;2023-09-07T05:34:37;66.95;48.73;79.85;;
63692;Laerm;49838;51.798;10.954;2023-09-07T05:37:04;63.75;45.96;77.07;;
63692;Laerm;49838;51.798;10.954;2023-09-07T05:39:31;56.58;43.71;71.13;;
63692;Laerm;49838;51.798;10.954;2023-09-07T05:42:00;56.42;44.39;72.23;;
63692;Laerm;49838;51.798;10.954;2023-09-07T05:44:27;54.77;43.73;70.59;;
63692;Laerm;49838;51.798;10.954;2023-09-07T05:46:55;55.45;45.09;68.84;;
63692;Laerm;49838;51.798;10.954;2023-09-07T05:49:24;62.60;45.99;77.89;;
63692;Laerm;49838;51.798;10.954;2023-09-07T05:51:51;76.58;50.12;89.04;;
63692;Laerm;49838;51.798;10.954;2023-09-07T05:54:19;57.87;42.74;71.72;;
63692;Laerm;49838;51.798;10.954;2023-09-07T05:56:46;57.03;43.05;73.67;;
63692;Laerm;49838;51.798;10.954;2023-09-07T05:59:15;62.16;44.57;76.71;;
63692;Laerm;49838;51.798;10.954;2023-09-07T06:01:42;58.89;43.99;73.72;;
63692;Laerm;49838;51.798;10.954;2023-09-07T06:04:10;54.54;44.34;70.03;;
63692;Laerm;49838;51.798;10.954;2023-09-07T06:06:37;57.29;44.76;76.43;;
63692;Laerm;49838;51.798;10.954;2023-09-07T06:09:05;58.58;45.49;75.42;;
63692;Laerm;49838;51.798;10.954;2023-09-07T06:11:32;58.08;46.06;70.60;;
63692;Laerm;49838;51.798;10.954;2023-09-07T06:14:00;58.74;49.51;71.97;;
63692;Laerm;49838;51.798;10.954;2023-09-07T06:16:30;58.64;45.72;74.41;;
63692;Laerm;49838;51.798;10.954;2023-09-07T06:18:57;60.17;45.56;76.96;;
63692;Laerm;49838;51.798;10.954;2023-09-07T06:21:24;54.77;45.50;71.58;;
63692;Laerm;49838;51.798;10.954;2023-09-07T06:23:52;60.92;47.21;79.19;;
63692;Laerm;49838;51.798;10.954;2023-09-07T06:26:19;55.06;44.28;68.13;;
63692;Laerm;49838;51.798;10.954;2023-09-07T06:28:47;53.97;44.36;68.00;;
63692;Laerm;49838;51.798;10.954;2023-09-07T06:31:14;50.54;43.99;62.77;;
63692;Laerm;49838;51.798;10.954;2023-09-07T06:33:43;59.24;45.12;74.23;;
63692;Laerm;49838;51.798;10.954;2023-09-07T06:36:10;57.47;43.62;74.24;;
63692;Laerm;49838;51.798;10.954;2023-09-07T06:38:38;65.89;44.59;81.39;;
63692;Laerm;49838;51.798;10.954;2023-09-07T06:41:05;58.72;45.56;76.11;;
63692;Laerm;49838;51.798;10.954;2023-09-07T06:43:33;54.50;43.47;70.01;;
63692;Laerm;49838;51.798;10.954;2023-09-07T06:46:06;62.00;45.08;79.74;;
63692;Laerm;49838;51.798;10.954;2023-09-07T06:48:34;57.14;43.52;69.32;;
63692;Laerm;49838;51.798;10.954;2023-09-07T06:51:03;57.30;42.86;69.74;;
63692;Laerm;49838;51.798;10.954;2023-09-07T06:53:31;65.98;41.39;78.43;;
63692;Laerm;49838;51.798;10.954;2023-09-07T06:55:58;62.29;49.65;72.00;;
63692;Laerm;49838;51.798;10.954;2023-09-07T06:58:26;55.08;48.95;66.03;;
63692;Laerm;49838;51.798;10.954;2023-09-07T07:00:56;65.56;48.40;81.31;;
63692;Laerm;49838;51.798;10.954;2023-09-07T07:03:27;52.05;40.32;67.14;;
63692;Laerm;49838;51.798;10.954;2023-09-07T07:05:55;62.26;43.60;71.36;;
63692;Laerm;49838;51.798;10.954;2023-09-07T07:08:24;61.31;39.92;69.54;;
63692;Laerm;49838;51.798;10.954;2023-09-07T07:10:51;59.81;50.80;68.38;;
63692;Laerm;49838;51.798;10.954;2023-09-07T07:13:19;55.26;51.01;60.64;;
63692;Laerm;49838;51.798;10.954;2023-09-07T07:15:46;57.87;45.61;73.28;;
63692;Laerm;49838;51.798;10.954;2023-09-07T07:18:14;58.90;39.76;73.33;;
63692;Laerm;49838;51.798;10.954;2023-09-07T07:20:43;54.90;37.99;72.84;;
63692;Laerm;49838;51.798;10.954;2023-09-07T07:23:10;55.40;38.29;70.94;;
63692;Laerm;49838;51.798;10.954;2023-09-07T07:25:40;62.35;37.79;78.14;;
63692;Laerm;49838;51.798;10.954;2023-09-07T07:28:07;54.10;38.24;67.43;;
63692;Laerm;49838;51.798;10.954;2023-09-07T07:30:38;56.30;37.87;75.44;;
63692;Laerm;49838;51.798;10.954;2023-09-07T07:33:07;59.33;37.60;75.99;;
63692;Laerm;49838;51.798;10.954;2023-09-07T07:35:35;59.73;38.96;72.86;;
63692;Laerm;49838;51.798;10.954;2023-09-07T07:38:03;57.21;36.98;72.23;;
63692;Laerm;49838;51.798;10.954;2023-09-07T07:40:32;58.42;37.64;79.03;;
63692;Laerm;49838;51.798;10.954;2023-09-07T07:43:01;62.82;38.76;80.42;;
63692;Laerm;49838;51.798;10.954;2023-09-07T07:45:29;63.71;38.17;80.96;;
63692;Laerm;49838;51.798;10.954;2023-09-07T07:47:56;54.77;36.79;72.14;;
63692;Laerm;49838;51.798;10.954;2023-09-07T07:50:23;55.02;38.49;70.30;;
63692;Laerm;49838;51.798;10.954;2023-09-07T07:52:51;55.76;38.28;69.77;;
63692;Laerm;49838;51.798;10.954;2023-09-07T07:55:19;52.64;36.66;71.26;;
63692;Laerm;49838;51.798;10.954;2023-09-07T07:57:46;58.26;38.86;72.09;;
63692;Laerm;49838;51.798;10.954;2023-09-07T08:00:15;58.11;38.65;76.22;;
63692;Laerm;49838;51.798;10.954;2023-09-07T08:02:42;56.92;39.57;75.18;;
63692;Laerm;49838;51.798;10.954;2023-09-07T08:05:10;56.87;38.80;72.58;;
63692;Laerm;49838;51.798;10.954;2023-09-07T08:07:38;55.65;39.61;74.10;;
63692;Laerm;49838;51.798;10.954;2023-09-07T08:10:06;55.17;40.03;68.47;;
63692;Laerm;49838;51.798;10.954;2023-09-07T08:12:33;53.41;38.60;69.40;;
63692;Laerm;49838;51.798;10.954;2023-09-07T08:15:00;56.15;35.75;69.95;;
63692;Laerm;49838;51.798;10.954;2023-09-07T08:17:30;61.99;39.45;78.25;;
63692;Laerm;49838;51.798;10.954;2023-09-07T08:19:57;59.32;39.58;71.67;;
63692;Laerm;49838;51.798;10.954;2023-09-07T08:22:25;55.03;37.39;71.22;;
63692;Laerm;49838;51.798;10.954;2023-09-07T08:24:53;55.77;36.84;72.24;;
63692;Laerm;49838;51.798;10.954;2023-09-07T08:27:21;58.20;37.57;70.80;;
63692;Laerm;49838;51.798;10.954;2023-09-07T08:29:48;56.61;37.28;69.94;;
63692;Laerm;49838;51.798;10.954;2023-09-07T08:32:17;55.27;38.28;70.63;;
63692;Laerm;49838;51.798;10.954;2023-09-07T08:34:46;60.20;37.59;77.68;;
63692;Laerm;49838;51.798;10.954;2023-09-07T08:37:13;54.30;37.45;68.70;;
63692;Laerm;49838;51.798;10.954;2023-09-07T08:39:41;54.32;36.99;72.17;;
63692;Laerm;49838;51.798;10.954;2023-09-07T08:42:08;53.22;36.75;68.26;;
63692;Laerm;49838;51.798;10.954;2023-09-07T08:44:37;57.89;36.02;72.25;;
63692;Laerm;49838;51.798;10.954;2023-09-07T08:47:04;56.34;38.92;72.31;;
63692;Laerm;49838;51.798;10.954;2023-09-07T08:49:33;59.21;37.98;69.67;;
63692;Laerm;49838;51.798;10.954;2023-09-07T08:52:02;56.35;39.24;73.24;;
63692;Laerm;49838;51.798;10.954;2023-09-07T08:54:31;52.80;38.28;73.93;;
63692;Laerm;49838;51.798;10.954;2023-09-07T08:57:02;55.17;38.75;69.25;;
63692;Laerm;49838;51.798;10.954;2023-09-07T08:59:30;66.10;42.83;90.16;;
63692;Laerm;49838;51.798;10.954;2023-09-07T09:01:57;57.45;40.19;73.07;;
63692;Laerm;49838;51.798;10.954;2023-09-07T09:04:25;59.17;37.89;74.35;;
63692;Laerm;49838;51.798;10.954;2023-09-07T09:06:53;51.17;38.48;64.05;;
63692;Laerm;49838;51.798;10.954;2023-09-07T09:09:23;56.20;40.90;76.40;;
63692;Laerm;49838;51.798;10.954;2023-09-07T09:11:51;51.58;37.70;66.38;;
63692;Laerm;49838;51.798;10.954;2023-09-07T09:14:19;55.51;40.81;69.44;;
63692;Laerm;49838;51.798;10.954;2023-09-07T09:16:48;52.37;37.99;70.61;;
63692;Laerm;49838;51.798;10.954;2023-09-07T09:19:17;54.57;39.22;67.42;;
63692;Laerm;49838;51.798;10.954;2023-09-07T09:21:44;65.07;40.22;81.92;;
63692;Laerm;49838;51.798;10.954;2023-09-07T09:24:12;66.20;39.28;82.34;;
63692;Laerm;49838;51.798;10.954;2023-09-07T09:26:42;54.20;38.11;71.04;;
63692;Laerm;49838;51.798;10.954;2023-09-07T09:29:09;60.17;39.47;77.64;;
63692;Laerm;49838;51.798;10.954;2023-09-07T09:31:37;60.34;38.49;74.89;;
63692;Laerm;49838;51.798;10.954;2023-09-07T09:34:04;61.26;39.09;76.32;;
63692;Laerm;49838;51.798;10.954;2023-09-07T09:36:35;54.66;39.33;67.97;;
63692;Laerm;49838;51.798;10.954;2023-09-07T09:39:04;60.55;38.49;78.44;;
63692;Laerm;49838;51.798;10.954;2023-09-07T09:41:32;59.77;38.91;74.53;;
63692;Laerm;49838;51.798;10.954;2023-09-07T09:44:02;58.29;38.66;74.53;;
63692;Laerm;49838;51.798;10.954;2023-09-07T09:46:31;58.47;40.77;78.49;;
63692;Laerm;49838;51.798;10.954;2023-09-07T09:48:59;62.73;38.74;86.62;;
63692;Laerm;49838;51.798;10.954;2023-09-07T09:51:28;58.64;40.24;76.57;;
63692;Laerm;49838;51.798;10.954;2023-09-07T09:53:58;57.60;40.05;72.61;;
63692;Laerm;49838;51.798;10.954;2023-09-07T09:56:25;58.49;39.48;78.34;;
63692;Laerm;49838;51.798;10.954;2023-09-07T09:58:52;58.37;38.95;71.52;;
63692;Laerm;49838;51.798;10.954;2023-09-07T10:01:21;59.72;41.14;74.09;;
63692;Laerm;49838;51.798;10.954;2023-09-07T10:03:49;55.61;41.42;69.08;;
63692;Laerm;49838;51.798;10.954;2023-09-07T10:06:18;58.18;41.31;72.45;;
63692;Laerm;49838;51.798;10.954;2023-09-07T10:08:54;54.86;40.27;71.84;;
63692;Laerm;49838;51.798;10.954;2023-09-07T10:11:29;63.53;39.18;76.31;;
63692;Laerm;49838;51.798;10.954;2023-09-07T10:13:57;56.53;37.16;71.90;;
63692;Laerm;49838;51.798;10.954;2023-09-07T10:16:26;57.00;38.06;71.71;;
63692;Laerm;49838;51.798;10.954;2023-09-07T10:18:54;59.97;41.65;73.57;;
63692;Laerm;49838;51.798;10.954;2023-09-07T10:21:24;71.77;38.68;98.92;;
63692;Laerm;49838;51.798;10.954;2023-09-07T10:23:53;55.16;39.86;71.36;;
63692;Laerm;49838;51.798;10.954;2023-09-07T10:26:20;56.33;39.82;70.90;;
63692;Laerm;49838;51.798;10.954;2023-09-07T10:28:58;54.70;37.72;77.76;;
63692;Laerm;49838;51.798;10.954;2023-09-07T10:31:27;57.45;37.71;81.08;;
63692;Laerm;49838;51.798;10.954;2023-09-07T10:33:56;59.46;41.25;76.89;;
63692;Laerm;49838;51.798;10.954;2023-09-07T10:36:34;55.79;40.39;69.56;;
63692;Laerm;49838;51.798;10.954;2023-09-07T10:39:03;59.07;42.47;77.33;;
63692;Laerm;49838;51.798;10.954;2023-09-07T10:41:40;59.21;39.80;78.61;;
63692;Laerm;49838;51.798;10.954;2023-09-07T10:44:08;57.44;44.10;71.83;;
63692;Laerm;49838;51.798;10.954;2023-09-07T10:46:38;55.25;43.42;72.69;;
63692;Laerm;49838;51.798;10.954;2023-09-07T10:49:07;53.59;42.46;71.03;;
63692;Laerm;49838;51.798;10.954;2023-09-07T10:51:40;57.05;42.23;71.26;;
63692;Laerm;49838;51.798;10.954;2023-09-07T10:54:15;56.21;43.62;70.79;;
63692;Laerm;49838;51.798;10.954;2023-09-07T10:56:44;55.89;42.23;70.88;;
63692;Laerm;49838;51.798;10.954;2023-09-07T10:59:11;58.49;42.83;72.76;;
63692;Laerm;49838;51.798;10.954;2023-09-07T11:01:41;62.97;42.12;73.12;;
63692;Laerm;49838;51.798;10.954;2023-09-07T11:04:09;58.96;43.04;73.22;;
63692;Laerm;49838;51.798;10.954;2023-09-07T11:06:37;57.37;41.98;72.07;;
63692;Laerm;49838;51.798;10.954;2023-09-07T11:09:05;66.83;43.70;80.86;;
63692;Laerm;49838;51.798;10.954;2023-09-07T11:11:35;53.95;42.01;81.67;;
63692;Laerm;49838;51.798;10.954;2023-09-07T11:14:03;57.57;43.21;71.68;;
63692;Laerm;49838;51.798;10.954;2023-09-07T11:16:32;52.91;41.66;69.89;;
63692;Laerm;49838;51.798;10.954;2023-09-07T11:19:03;54.47;41.39;67.80;;
63692;Laerm;49838;51.798;10.954;2023-09-07T11:21:31;62.77;43.59;79.52;;
63692;Laerm;49838;51.798;10.954;2023-09-07T11:24:00;58.56;43.86;73.65;;
63692;Laerm;49838;51.798;10.954;2023-09-07T11:26:40;57.00;43.50;71.11;;
63692;Laerm;49838;51.798;10.954;2023-09-07T11:29:08;53.23;42.70;67.81;;
63692;Laerm;49838;51.798;10.954;2023-09-07T11:31:36;47.65;40.51;69.86;;
63692;Laerm;49838;51.798;10.954;2023-09-07T11:34:08;58.54;39.34;76.54;;
63692;Laerm;49838;51.798;10.954;2023-09-07T11:36:36;52.96;41.73;66.96;;
63692;Laerm;49838;51.798;10.954;2023-09-07T11:39:09;62.59;43.62;80.34;;
63692;Laerm;49838;51.798;10.954;2023-09-07T11:41:39;64.06;43.64;83.81;;
63692;Laerm;49838;51.798;10.954;2023-09-07T11:44:07;63.76;45.25;85.74;;
63692;Laerm;49838;51.798;10.954;2023-09-07T11:46:36;55.85;44.41;70.53;;
63692;Laerm;49838;51.798;10.954;2023-09-07T11:49:05;56.38;43.48;68.31;;
63692;Laerm;49838;51.798;10.954;2023-09-07T11:51:35;60.20;44.90;79.59;;
63692;Laerm;49838;51.798;10.954;2023-09-07T11:54:03;55.05;42.91;68.39;;
63692;Laerm;49838;51.798;10.954;2023-09-07T11:56:30;61.13;41.26;77.46;;
63692;Laerm;49838;51.798;10.954;2023-09-07T11:58:58;58.17;41.51;79.30;;
63692;Laerm;49838;51.798;10.954;2023-09-07T12:01:25;58.73;43.24;76.70;;
63692;Laerm;49838;51.798;10.954;2023-09-07T12:03:53;57.01;41.88;70.00;;
63692;Laerm;49838;51.798;10.954;2023-09-07T12:06:22;57.46;43.55;71.87;;
63692;Laerm;49838;51.798;10.954;2023-09-07T12:08:59;55.34;42.25;69.20;;
63692;Laerm;49838;51.798;10.954;2023-09-07T12:11:27;62.05;41.82;82.62;;
63692;Laerm;49838;51.798;10.954;2023-09-07T12:13:54;58.78;41.22;71.39;;
63692;Laerm;49838;51.798;10.954;2023-09-07T12:16:22;54.89;40.64;70.29;;
63692;Laerm;49838;51.798;10.954;2023-09-07T12:18:50;56.84;42.56;71.99;;
63692;Laerm;49838;51.798;10.954;2023-09-07T12:21:17;59.13;42.53;77.97;;
63692;Laerm;49838;51.798;10.954;2023-09-07T12:23:46;59.02;42.19;74.82;;
63692;Laerm;49838;51.798;10.954;2023-09-07T12:26:14;53.92;42.77;69.43;;
63692;Laerm;49838;51.798;10.954;2023-09-07T12:28:42;54.04;43.22;69.25;;
63692;Laerm;49838;51.798;10.954;2023-09-07T12:31:10;51.88;42.04;67.31;;
63692;Laerm;49838;51.798;10.954;2023-09-07T12:33:39;54.71;42.82;68.71;;
63692;Laerm;49838;51.798;10.954;2023-09-07T12:36:07;60.92;42.93;76.78;;
63692;Laerm;49838;51.798;10.954;2023-09-07T12:38:36;54.90;43.40;69.13;;
63692;Laerm;49838;51.798;10.954;2023-09-07T12:41:05;55.75;43.37;72.56;;
63692;Laerm;49838;51.798;10.954;2023-09-07T12:43:32;59.36;42.08;80.50;;
63692;Laerm;49838;51.798;10.954;2023-09-07T12:45:59;56.16;42.73;75.22;;
63692;Laerm;49838;51.798;10.954;2023-09-07T12:48:27;57.34;41.73;71.70;;
63692;Laerm;49838;51.798;10.954;2023-09-07T12:50:54;60.92;41.64;71.92;;
63692;Laerm;49838;51.798;10.954;2023-09-07T12:53:21;58.20;40.80;71.39;;
63692;Laerm;49838;51.798;10.954;2023-09-07T12:55:52;56.12;41.66;70.39;;
63692;Laerm;49838;51.798;10.954;2023-09-07T12:58:21;58.46;42.82;72.23;;
63692;Laerm;49838;51.798;10.954;2023-09-07T13:00:48;59.79;40.98;72.19;;
63692;Laerm;49838;51.798;10.954;2023-09-07T13:03:17;58.80;44.78;73.14;;
63692;Laerm;49838;51.798;10.954;2023-09-07T13:05:44;58.76;39.61;71.87;;
63692;Laerm;49838;51.798;10.954;2023-09-07T13:08:12;58.46;39.71;71.62;;
63692;Laerm;49838;51.798;10.954;2023-09-07T13:10:39;51.86;40.12;66.38;;
63692;Laerm;49838;51.798;10.954;2023-09-07T13:13:07;63.96;42.77;85.47;;
63692;Laerm;49838;51.798;10.954;2023-09-07T13:15:35;62.79;42.41;86.83;;
63692;Laerm;49838;51.798;10.954;2023-09-07T13:18:03;60.13;42.19;71.77;;
63692;Laerm;49838;51.798;10.954;2023-09-07T13:20:31;58.28;42.89;77.36;;
63692;Laerm;49838;51.798;10.954;2023-09-07T13:22:58;63.88;43.33;80.99;;
63692;Laerm;49838;51.798;10.954;2023-09-07T13:25:26;54.30;40.98;69.09;;
63692;Laerm;49838;51.798;10.954;2023-09-07T13:27:54;55.45;40.83;69.84;;
63692;Laerm;49838;51.798;10.954;2023-09-07T13:30:21;63.01;40.82;81.84;;
63692;Laerm;49838;51.798;10.954;2023-09-07T13:32:50;62.35;43.47;82.49;;
63692;Laerm;49838;51.798;10.954;2023-09-07T13:35:17;63.99;43.76;81.89;;
63692;Laerm;49838;51.798;10.954;2023-09-07T13:37:45;59.28;40.22;71.65;;
63692;Laerm;49838;51.798;10.954;2023-09-07T13:40:12;57.22;40.09;77.63;;